Etusivu
METAR-TAF:

METAR-TAF

Lentoasemat :

Tšita, Venäjä

Leveyspiiri: 52-05N, Pituuspiiri: 113-29E, korkeus merenpinnasta: 685 m

Tämänhetkinen sää

Tämä raportti tehtiin 20 minuuttia sitten, kello 08.30 UTC
Tuuli 16 kn lännestä/luoteesta
Lämpötila 17°C
Kosteus 39%
Ilmanpaine 1010 hPa
Näkyvyys 10 km tai enemmän
Hajanaisia pilviä 4300 ft:n korkeudessa, Cumulonimbus.

METAR: UIAA 230830Z 30008MPS 9999 SCT043CB 17/03 Q1010 R29/CLRD70 NOSIG RMK QFE699

Aika: 17:50 (08:50 UTC)

Sääennuste

Tämä raportti tehtiin 50 minuuttia sitten, kello 08.00 UTC
Ennuste voimassa 23. päivästä klo 09 UTC - 24. päivään klo 09 UTC
Tuuli 16 kn lännestä/luoteesta puuskistuen 25 kn:hen
Näkyvyys 10 km tai enemmän
Hajonneita pilviä 3000 ft:n korkeudessa, Cumulonimbus.
Ajoittain
23. päivästä klo 15 UTC - 23. päivään klo 24 UTC
Tuuli 6 kn lännestä/luoteesta

TAF: UIAA 230800Z 2309/2409 30008G13MPS 9999 BKN030CB TEMPO 2315/2324 29003MPS

Säähavainnot ja -ennusteet yli 4000 lentoasemalta (METAR- ja TAF-raportit).

Käytössä olevat sääasemat on merkitty karttaan keltaisilla ja punaisilla pisteillä.

Aseta hiiri pisteen päälle nähdäksesi sääaseman nimen.

Klikkaa sitten nähdäksesi säähavainnot ja -ennusteet.

Kartan vaihtaminen: klikkaa mustalla rastilla varustettuja vihreitä pisteitä, niin voit zoomata sisään; viivalla varustettua vihreää pistettä, niin voit zoomata ulos tai vihreitä nuolia, niin pääset viereisille kartoille.


METAR-TAF: